createdAt,value
2023-03-17T06:22:03.722Z,7.38
2023-03-17T06:25:05.948Z,7.28
2023-03-17T06:28:07.649Z,7.85
2023-03-17T06:31:09.493Z,7.50
2023-03-17T06:34:11.987Z,7.75
2023-03-17T06:37:13.741Z,9.13
2023-03-17T06:40:16.205Z,7.65
2023-03-17T06:43:19.534Z,7.88
2023-03-17T06:46:21.580Z,7.70
2023-03-17T06:49:23.270Z,7.88
2023-03-17T06:52:25.501Z,7.88
2023-03-17T06:55:27.398Z,8.27
2023-03-17T06:58:29.348Z,6.28
2023-03-17T07:01:31.535Z,7.13
2023-03-17T07:04:33.310Z,5.32
2023-03-17T07:07:35.614Z,8.68
2023-03-17T07:10:37.381Z,7.45
2023-03-17T07:13:39.846Z,6.82
2023-03-17T07:16:41.544Z,7.57
2023-03-17T07:19:43.684Z,5.40
2023-03-17T07:22:45.452Z,6.85
2023-03-17T07:25:47.473Z,6.80
2023-03-17T07:28:49.170Z,4.65
2023-03-17T07:31:51.209Z,4.22
2023-03-17T07:34:53.030Z,5.97
2023-03-17T07:37:55.301Z,6.50
2023-03-17T07:40:57.019Z,7.03
2023-03-17T07:43:58.874Z,6.28
2023-03-17T07:47:00.526Z,10.13
2023-03-17T07:50:02.277Z,5.60
2023-03-17T07:53:04.618Z,6.40
2023-03-17T07:56:06.893Z,6.95
2023-03-17T07:59:10.927Z,6.38
2023-03-17T08:02:16.403Z,6.78
2023-03-17T08:05:18.298Z,6.57
2023-03-17T08:08:22.124Z,8.00
2023-03-17T08:11:24.168Z,8.45
2023-03-17T08:14:25.962Z,6.95
2023-03-17T08:17:27.593Z,5.18
2023-03-17T08:20:29.962Z,6.55
2023-03-17T08:23:32.372Z,5.93
2023-03-17T08:26:34.410Z,5.18
2023-03-17T08:29:36.101Z,5.28
2023-03-17T08:32:37.997Z,5.35
2023-03-17T08:35:41.618Z,3.22
2023-03-17T08:38:43.674Z,3.13
2023-03-17T08:41:45.962Z,4.82
2023-03-17T08:44:47.617Z,3.70
2023-03-17T08:47:49.292Z,5.45
2023-03-17T08:50:51.295Z,4.72
2023-03-17T08:53:53.965Z,3.65
2023-03-17T08:56:55.584Z,4.32
2023-03-17T08:59:57.208Z,4.18
2023-03-17T09:02:59.162Z,4.32
2023-03-17T09:06:00.871Z,4.18
2023-03-17T09:09:02.529Z,3.70
2023-03-17T09:12:05.648Z,4.50
2023-03-17T09:15:07.854Z,4.68
2023-03-17T09:18:10.500Z,3.75
2023-03-17T09:21:12.743Z,4.07
2023-03-17T09:24:14.672Z,4.45
2023-03-17T09:27:16.317Z,4.00
2023-03-17T09:30:18.732Z,1.85
2023-03-17T09:33:20.940Z,1.42
2023-03-17T09:36:23.612Z,1.45
2023-03-17T09:39:25.342Z,2.47
2023-03-17T09:42:38.586Z,7.68
2023-03-17T09:45:43.429Z,1.40
2023-03-17T09:49:01.781Z,2.90
2023-03-17T09:52:03.833Z,3.78
2023-03-17T09:55:08.499Z,2.08
2023-03-17T09:58:10.333Z,4.60
2023-03-17T10:01:13.432Z,4.63
2023-03-17T10:04:18.279Z,2.85
2023-03-17T10:07:27.034Z,3.60
2023-03-17T10:10:43.635Z,3.80
2023-03-17T10:13:55.003Z,4.15
2023-03-17T10:17:11.855Z,1.95
2023-03-17T10:20:26.324Z,2.10
2023-03-17T10:23:29.996Z,1.88
2023-03-17T10:26:39.831Z,3.67
2023-03-17T10:29:42.123Z,1.65
2023-03-17T10:32:44.384Z,3.08
2023-03-17T10:35:46.792Z,3.15
2023-03-17T10:38:52.558Z,1.83
2023-03-17T10:42:00.333Z,2.90
2023-03-17T10:45:07.477Z,2.17
2023-03-17T10:48:09.581Z,3.95
2023-03-17T10:51:13.716Z,4.18
2023-03-17T10:54:18.946Z,1.50
2023-03-17T10:57:20.777Z,3.67
2023-03-17T11:00:23.173Z,2.10
2023-03-17T11:03:34.145Z,3.92
2023-03-17T11:06:42.226Z,4.28
2023-03-17T11:09:44.560Z,4.85
2023-03-17T11:12:52.944Z,3.42
2023-03-17T11:16:00.396Z,2.85
2023-03-17T11:19:02.479Z,5.22
2023-03-17T11:22:16.667Z,2.78
2023-03-17T11:25:23.460Z,7.10
2023-03-17T11:28:31.063Z,5.40
2023-03-17T11:31:35.110Z,5.90
2023-03-17T11:35:10.818Z,6.38
2023-03-17T11:38:22.459Z,5.43
2023-03-17T11:41:51.028Z,5.78
2023-03-17T11:45:04.621Z,4.90
2023-03-17T11:48:22.656Z,8.35
2023-03-17T11:51:43.462Z,2.63
2023-03-17T11:54:48.208Z,5.38
2023-03-17T11:57:56.876Z,4.78
2023-03-17T12:01:00.387Z,5.75
2023-03-17T12:04:05.524Z,3.10
2023-03-17T12:07:21.316Z,5.75
2023-03-17T12:10:33.496Z,6.28
2023-03-17T12:13:46.573Z,6.05
2023-03-17T12:16:50.213Z,5.45
2023-03-17T12:19:58.413Z,3.95
2023-03-17T12:23:16.569Z,4.85
2023-03-17T12:26:20.201Z,4.90
2023-03-17T12:29:25.556Z,4.18
2023-03-17T12:32:44.674Z,4.38
2023-03-17T12:35:46.395Z,3.30
2023-03-17T12:39:01.856Z,1.85
2023-03-17T12:42:18.619Z,3.50
2023-03-17T12:45:46.052Z,6.13
2023-03-17T12:52:12.410Z,3.45
2023-03-17T12:55:15.971Z,4.82
2023-03-17T12:58:32.777Z,2.90
2023-03-17T13:01:46.430Z,3.97
2023-03-17T13:04:57.777Z,5.10
2023-03-17T13:08:01.561Z,3.00
2023-03-17T13:11:26.094Z,3.55
2023-03-17T13:14:41.038Z,4.97
2023-03-17T13:17:42.688Z,4.88
2023-03-17T13:20:59.354Z,2.47
2023-03-17T13:24:16.216Z,3.50
2023-03-17T13:27:32.831Z,2.13
2023-03-17T13:30:34.433Z,4.25
2023-03-17T13:33:41.048Z,3.70
2023-03-17T13:37:15.294Z,4.65
2023-03-17T13:40:19.988Z,3.38
2023-03-17T13:43:58.911Z,6.35
2023-03-17T13:47:27.158Z,1.75
2023-03-17T13:50:31.843Z,2.88
2023-03-17T13:53:45.773Z,3.85
2023-03-17T13:56:50.877Z,4.25
2023-03-17T14:00:15.038Z,5.72
2023-03-17T14:03:23.315Z,3.90
2023-03-17T14:06:36.186Z,4.57
2023-03-17T14:09:39.140Z,3.15
2023-03-17T14:12:52.441Z,7.80
2023-03-17T14:15:59.821Z,2.45
2023-03-17T14:19:17.827Z,2.45
2023-03-17T14:22:23.894Z,3.65
2023-03-17T14:25:27.106Z,2.10
2023-03-17T14:28:30.520Z,2.13
2023-03-17T14:31:32.283Z,0.82
2023-03-17T14:34:34.068Z,1.65
2023-03-17T14:37:37.266Z,2.75
2023-03-17T14:43:41.428Z,3.60
2023-03-17T14:46:43.071Z,5.65
2023-03-17T14:49:44.684Z,1.95
2023-03-17T14:52:46.539Z,1.85
2023-03-17T14:55:48.213Z,3.80
2023-03-17T14:58:50.892Z,1.67
2023-03-17T15:01:57.280Z,1.35
2023-03-17T15:05:02.400Z,1.83
2023-03-17T15:08:41.132Z,1.67
2023-03-17T15:11:43.576Z,1.85
2023-03-17T15:14:45.936Z,3.45
2023-03-17T15:17:50.602Z,3.50
2023-03-17T15:20:52.284Z,0.98
2023-03-17T15:23:53.977Z,5.78
2023-03-17T15:27:06.979Z,2.88
2023-03-17T15:30:09.613Z,2.10
2023-03-17T15:33:21.150Z,3.85
2023-03-17T15:36:32.356Z,1.38
2023-03-17T15:39:34.526Z,3.90
2023-03-17T15:42:37.720Z,2.13
2023-03-17T15:45:39.360Z,4.07
2023-03-17T15:48:41.007Z,4.10
2023-03-17T15:51:42.736Z,2.95
2023-03-17T15:54:45.462Z,2.80
2023-03-17T15:57:54.806Z,4.40
2023-03-17T16:00:57.297Z,2.63
2023-03-17T16:03:59.107Z,5.75
2023-03-17T16:07:00.790Z,1.77
2023-03-17T16:10:02.455Z,2.53
2023-03-17T16:13:04.324Z,4.05
2023-03-17T16:16:06.191Z,3.75
2023-03-17T16:19:28.136Z,2.70
2023-03-17T16:22:41.776Z,4.68
2023-03-17T16:25:43.849Z,3.63
2023-03-17T16:28:46.274Z,4.38
2023-03-17T16:31:49.248Z,5.80
2023-03-17T16:34:50.886Z,4.20
2023-03-17T16:37:54.105Z,2.35
2023-03-17T16:41:00.155Z,4.07
2023-03-17T16:44:02.190Z,2.58
2023-03-17T16:47:04.073Z,2.78
2023-03-17T16:50:14.383Z,3.33
2023-03-17T16:53:16.306Z,4.85
2023-03-17T16:56:21.921Z,4.63
2023-03-17T16:59:28.230Z,3.10
2023-03-17T17:02:30.118Z,3.42
2023-03-17T17:05:32.116Z,5.38
2023-03-17T17:08:33.806Z,4.03
2023-03-17T17:11:35.777Z,5.55
2023-03-17T17:14:37.458Z,4.35
2023-03-17T17:17:40.486Z,3.90
2023-03-17T17:20:42.267Z,4.07
2023-03-17T17:23:44.522Z,4.03
2023-03-17T17:26:46.213Z,3.35
2023-03-17T17:29:48.066Z,5.25
2023-03-17T17:32:50.147Z,3.25
2023-03-17T17:35:52.481Z,4.32
2023-03-17T17:38:54.233Z,6.70
2023-03-17T17:41:56.365Z,8.82
2023-03-17T17:44:58.062Z,6.85
2023-03-17T17:47:59.730Z,4.90
2023-03-17T17:51:02.626Z,3.90
2023-03-17T17:54:04.565Z,3.45
2023-03-17T17:57:07.008Z,2.13
2023-03-17T18:00:10.407Z,2.65
2023-03-17T18:03:12.299Z,3.83
2023-03-17T18:06:14.004Z,2.80
2023-03-17T18:09:18.053Z,3.15
2023-03-17T18:12:19.732Z,3.45
2023-03-17T18:15:21.952Z,2.90
2023-03-17T18:18:23.717Z,5.15
2023-03-17T18:21:25.564Z,6.75
2023-03-17T18:24:27.285Z,7.13
2023-03-17T18:27:28.956Z,4.43
2023-03-17T18:30:31.622Z,4.40
2023-03-17T18:33:33.726Z,4.10
2023-03-17T18:36:35.652Z,5.95
2023-03-17T18:39:37.290Z,5.32
2023-03-17T18:42:39.035Z,5.00
2023-03-17T18:45:40.711Z,4.20
2023-03-17T18:48:42.397Z,5.32
2023-03-17T18:51:44.293Z,4.25
2023-03-17T18:54:46.008Z,4.20
2023-03-17T18:57:47.716Z,4.35
2023-03-17T19:00:50.180Z,4.10
2023-03-17T19:03:52.052Z,4.60
2023-03-17T19:06:53.818Z,3.83
2023-03-17T19:09:55.835Z,4.72
2023-03-17T19:12:58.781Z,5.72
2023-03-17T19:16:00.549Z,5.95
2023-03-17T19:19:02.764Z,3.47
2023-03-17T19:22:04.484Z,10.13
2023-03-17T19:25:06.649Z,3.63
2023-03-17T19:28:08.495Z,7.88
2023-03-17T19:31:10.492Z,4.88
2023-03-17T19:34:13.074Z,6.00
2023-03-17T19:37:14.889Z,7.35
2023-03-17T19:40:16.845Z,5.97
2023-03-17T19:43:36.838Z,7.30
2023-03-17T19:46:41.332Z,9.25
2023-03-17T19:49:43.298Z,7.50
2023-03-17T19:52:46.148Z,7.55
2023-03-17T19:55:47.805Z,7.53
2023-03-17T19:58:49.727Z,7.82
2023-03-17T20:01:52.382Z,9.10
2023-03-17T20:04:54.603Z,8.18
2023-03-17T20:07:56.299Z,9.30
2023-03-17T20:10:58.377Z,9.15
2023-03-17T20:14:01.463Z,9.25
2023-03-17T20:17:04.451Z,14.23
2023-03-17T20:20:07.746Z,12.10
2023-03-17T20:23:09.397Z,11.35
2023-03-17T20:26:11.100Z,8.02
2023-03-17T20:29:14.276Z,9.63
2023-03-17T20:32:17.165Z,10.52
2023-03-17T20:35:18.858Z,8.65
2023-03-17T20:38:21.176Z,10.05
2023-03-17T20:41:23.931Z,7.75
2023-03-17T20:44:25.708Z,11.55
2023-03-17T20:47:28.212Z,13.10
2023-03-17T20:50:31.055Z,6.50
2023-03-17T20:53:34.259Z,10.40
2023-03-17T20:56:37.374Z,9.95
2023-03-17T20:59:39.692Z,10.30
2023-03-17T21:02:41.919Z,7.80
2023-03-17T21:05:43.704Z,9.13
2023-03-17T21:08:46.087Z,6.68
2023-03-17T21:11:49.210Z,9.32
2023-03-17T21:14:54.361Z,10.07
2023-03-17T21:17:56.083Z,6.13
2023-03-17T21:20:58.213Z,8.52
2023-03-17T21:24:02.004Z,8.13
2023-03-17T21:27:05.572Z,9.38
2023-03-17T21:30:09.677Z,9.00
2023-03-17T21:33:11.615Z,8.02
2023-03-17T21:36:13.301Z,6.50
2023-03-17T21:39:15.064Z,7.78
2023-03-17T21:42:16.872Z,5.90
2023-03-17T21:45:18.721Z,9.05
2023-03-17T21:48:20.760Z,11.35
2023-03-17T21:51:22.888Z,10.10
